createdAt,value
2024-03-12T00:03:13.427Z,0.52
2024-03-12T00:08:18.354Z,0.47
2024-03-12T00:13:22.365Z,0.73
2024-03-12T00:18:25.796Z,0.50
2024-03-12T00:23:31.002Z,0.52
2024-03-12T00:28:34.610Z,0.60
2024-03-12T00:33:38.061Z,0.63
2024-03-12T00:38:44.268Z,0.95
2024-03-12T00:43:47.926Z,0.93
2024-03-12T00:48:51.461Z,0.60
2024-03-12T00:53:56.643Z,0.52
2024-03-12T00:59:00.335Z,1.45
2024-03-12T01:04:03.446Z,0.60
2024-03-12T01:09:08.232Z,0.68
2024-03-12T01:14:11.361Z,0.43
2024-03-12T01:19:14.656Z,0.57
2024-03-12T01:24:19.269Z,0.50
2024-03-12T01:29:22.541Z,0.65
2024-03-12T01:34:25.568Z,0.68
2024-03-12T01:39:30.234Z,0.40
2024-03-12T01:44:33.233Z,0.50
2024-03-12T01:49:36.284Z,0.60
2024-03-12T01:54:40.883Z,0.52
2024-03-12T01:59:43.932Z,0.50
2024-03-12T02:04:46.936Z,0.60
2024-03-12T02:09:51.649Z,0.38
2024-03-12T02:14:54.679Z,0.50
2024-03-12T02:19:57.768Z,0.35
2024-03-12T02:25:02.587Z,0.50
2024-03-12T02:30:06.449Z,0.50
2024-03-12T02:35:10.224Z,0.45
2024-03-12T02:40:16.455Z,0.45
2024-03-12T02:45:20.624Z,0.57
2024-03-12T02:50:24.887Z,0.60
2024-03-12T02:55:32.328Z,0.50
2024-03-12T03:00:35.505Z,0.35
2024-03-12T03:05:38.741Z,0.57
2024-03-12T03:10:43.457Z,0.60
2024-03-12T03:15:47.811Z,0.30
2024-03-12T03:20:50.998Z,0.50
2024-03-12T03:25:55.606Z,0.60
2024-03-12T03:31:00.721Z,0.63
2024-03-12T03:36:04.513Z,0.50
2024-03-12T03:41:09.398Z,0.75
2024-03-12T03:46:13.000Z,0.40
2024-03-12T03:51:16.015Z,0.50
2024-03-12T03:56:20.930Z,0.55
2024-03-12T04:01:24.187Z,0.65
2024-03-12T04:06:27.247Z,0.75
2024-03-12T04:11:31.928Z,0.80
2024-03-12T04:16:34.971Z,0.88
2024-03-12T04:21:38.077Z,0.63
2024-03-12T04:26:42.888Z,0.70
2024-03-12T04:31:46.388Z,0.73
2024-03-12T04:36:49.543Z,0.65
2024-03-12T04:41:54.225Z,0.70
2024-03-12T04:46:57.360Z,0.73
2024-03-12T04:52:00.577Z,0.52
2024-03-12T04:57:05.311Z,0.30
2024-03-12T05:02:08.439Z,0.57
2024-03-12T05:07:11.476Z,0.70
2024-03-12T05:12:16.150Z,0.65
2024-03-12T05:17:19.202Z,0.63
2024-03-12T05:22:22.299Z,0.70
2024-03-12T05:27:27.008Z,0.70
2024-03-12T05:32:30.036Z,0.77
2024-03-12T05:37:33.181Z,0.55
2024-03-12T05:42:37.803Z,0.80
2024-03-12T05:47:40.912Z,0.57
2024-03-12T05:52:44.071Z,1.17
2024-03-12T05:57:48.674Z,0.63
2024-03-12T06:02:51.860Z,0.40
2024-03-12T06:07:54.864Z,0.57
2024-03-12T06:12:59.787Z,0.50
2024-03-12T06:18:03.245Z,0.68
2024-03-12T06:23:06.310Z,0.60
2024-03-12T06:28:11.155Z,0.63
2024-03-12T06:33:14.625Z,0.60
2024-03-12T06:38:17.828Z,0.70
2024-03-12T06:43:22.636Z,0.60
2024-03-12T06:48:25.865Z,0.52
2024-03-12T06:53:29.037Z,0.80
2024-03-12T06:58:33.664Z,0.77
2024-03-12T07:03:36.919Z,0.90
2024-03-12T07:08:40.007Z,0.90
2024-03-12T07:13:44.561Z,0.77
2024-03-12T07:18:48.029Z,0.80
2024-03-12T07:23:51.150Z,0.68
2024-03-12T07:28:55.747Z,0.80
2024-03-12T07:33:58.844Z,0.50
2024-03-12T07:39:02.086Z,1.27
2024-03-12T07:44:07.029Z,0.90
2024-03-12T07:49:12.413Z,0.70
2024-03-12T07:54:15.639Z,0.70
2024-03-12T07:59:22.665Z,0.90
2024-03-12T08:04:25.863Z,0.73
2024-03-12T08:09:29.087Z,0.70
2024-03-12T08:14:33.709Z,0.80
2024-03-12T08:19:36.931Z,0.73
2024-03-12T08:24:40.643Z,0.80
2024-03-12T08:29:45.308Z,0.82
2024-03-12T08:34:48.372Z,0.70
2024-03-12T08:39:51.694Z,0.52
2024-03-12T08:44:57.531Z,0.60
2024-03-12T08:50:00.717Z,0.70
2024-03-12T08:55:04.090Z,0.60
2024-03-12T09:00:10.678Z,0.82
2024-03-12T09:05:13.706Z,0.77
2024-03-12T09:10:16.821Z,0.55
2024-03-12T09:15:23.609Z,0.90
2024-03-12T09:20:28.097Z,0.70
2024-03-12T09:25:31.320Z,0.80
2024-03-12T09:30:36.028Z,0.60
2024-03-12T09:35:39.446Z,0.60
2024-03-12T09:40:42.996Z,0.73
2024-03-12T09:45:47.891Z,0.90
2024-03-12T09:50:51.554Z,0.77
2024-03-12T09:55:55.537Z,0.80
2024-03-12T10:01:00.203Z,0.70
2024-03-12T10:06:03.425Z,0.80
2024-03-12T10:11:06.473Z,0.68
2024-03-12T10:16:11.429Z,0.60
2024-03-12T10:21:23.162Z,0.73
2024-03-12T10:26:29.641Z,0.40
2024-03-12T10:31:34.211Z,0.88
2024-03-12T10:36:37.402Z,0.90
2024-03-12T10:41:41.117Z,0.98
2024-03-12T10:46:46.940Z,1.00
2024-03-12T10:51:50.113Z,0.80
2024-03-12T10:56:53.151Z,0.70
2024-03-12T11:01:57.895Z,0.82
2024-03-12T11:07:03.144Z,1.10
2024-03-12T11:12:06.631Z,0.98
2024-03-12T11:17:29.067Z,0.93
2024-03-12T11:22:32.454Z,0.68
2024-03-12T11:27:37.020Z,0.73
2024-03-12T11:32:44.331Z,0.93
2024-03-12T11:37:48.145Z,1.42
2024-03-12T11:42:52.199Z,0.70
2024-03-12T11:47:56.968Z,1.00
2024-03-12T11:53:14.719Z,0.80
2024-03-12T11:58:17.881Z,0.90
2024-03-12T12:03:22.652Z,0.95
2024-03-12T12:08:26.114Z,1.63
2024-03-12T12:13:29.585Z,1.05
2024-03-12T12:18:35.276Z,1.30
2024-03-12T12:23:38.663Z,1.60
2024-03-12T12:28:42.159Z,2.30
2024-03-12T12:33:49.537Z,1.05
2024-03-12T12:38:59.086Z,1.13
2024-03-12T12:44:09.864Z,1.10
2024-03-12T12:49:15.718Z,1.35
2024-03-12T12:54:22.382Z,1.00
2024-03-12T12:59:25.530Z,1.70
2024-03-12T13:04:30.151Z,1.02
2024-03-12T13:09:34.888Z,1.38
2024-03-12T13:14:38.666Z,1.15
2024-03-12T13:19:43.342Z,1.20
2024-03-12T13:24:46.408Z,1.35
2024-03-12T13:29:49.435Z,1.30
2024-03-12T13:34:54.033Z,1.50
2024-03-12T13:39:57.213Z,2.72
2024-03-12T13:45:00.348Z,1.80
2024-03-12T13:50:05.430Z,1.35
2024-03-12T13:55:09.190Z,1.30
2024-03-12T14:00:13.481Z,1.60
2024-03-12T14:05:18.859Z,1.38
2024-03-12T14:10:22.200Z,1.25
2024-03-12T14:15:25.596Z,1.40
2024-03-12T14:20:30.180Z,1.40
2024-03-12T14:25:33.221Z,1.60
2024-03-12T14:30:36.309Z,1.00
2024-03-12T14:35:41.105Z,1.10
2024-03-12T14:40:44.154Z,1.20
2024-03-12T14:45:47.752Z,1.65
2024-03-12T14:50:52.825Z,1.30
2024-03-12T14:55:56.165Z,1.42
2024-03-12T15:00:59.322Z,1.63
2024-03-12T15:06:04.086Z,0.90
2024-03-12T15:11:07.389Z,1.40
2024-03-12T15:16:10.743Z,1.25
2024-03-12T15:21:15.596Z,1.17
2024-03-12T15:26:18.654Z,1.33
2024-03-12T15:31:21.719Z,1.55
2024-03-12T15:36:26.329Z,1.60
2024-03-12T15:41:29.374Z,1.38
2024-03-12T15:46:32.392Z,1.70
2024-03-12T15:51:37.412Z,1.75
2024-03-12T15:56:40.494Z,1.90
2024-03-12T16:01:44.689Z,2.10
2024-03-12T16:06:49.398Z,1.73
2024-03-12T16:11:52.717Z,1.40
2024-03-12T16:16:55.741Z,1.38
2024-03-12T16:22:00.714Z,1.45
2024-03-12T16:27:03.898Z,1.42
2024-03-12T16:32:09.105Z,1.20
2024-03-12T16:37:14.153Z,1.50
2024-03-12T16:42:17.219Z,1.58
2024-03-12T16:47:20.269Z,1.42
2024-03-12T16:52:24.940Z,1.70
2024-03-12T16:57:28.579Z,1.20
2024-03-12T17:02:32.232Z,1.30
2024-03-12T17:07:37.357Z,1.35
2024-03-12T17:12:40.809Z,1.65
2024-03-12T17:17:44.908Z,1.70
2024-03-12T17:22:50.107Z,1.55
2024-03-12T17:27:53.568Z,1.60
2024-03-12T17:32:57.182Z,1.40
2024-03-12T17:38:04.210Z,1.30
2024-03-12T17:48:11.701Z,1.40
2024-03-12T17:53:17.105Z,1.20
2024-03-12T17:58:22.856Z,1.45
2024-03-12T18:03:26.945Z,1.42
2024-03-12T18:08:37.058Z,1.40
2024-03-12T18:13:40.837Z,1.42
2024-03-12T18:18:43.880Z,1.30
2024-03-12T18:23:48.643Z,1.50
2024-03-12T18:28:51.669Z,1.20
2024-03-12T18:33:54.783Z,1.20
2024-03-12T18:38:59.332Z,1.27
2024-03-12T18:44:02.370Z,1.15
2024-03-12T18:49:05.942Z,1.00
2024-03-12T18:54:11.409Z,1.17
2024-03-12T18:59:15.226Z,1.15
2024-03-12T19:04:19.829Z,1.00
2024-03-12T19:09:25.525Z,1.10
2024-03-12T19:14:30.449Z,1.00
2024-03-12T19:19:33.831Z,1.40
2024-03-12T19:24:38.654Z,1.13
2024-03-12T19:29:41.795Z,1.00
2024-03-12T19:34:45.446Z,1.15
2024-03-12T19:39:51.211Z,1.10
2024-03-12T19:44:54.894Z,0.90
2024-03-12T19:49:58.442Z,0.57
2024-03-12T19:55:03.154Z,1.10
2024-03-12T20:00:07.798Z,1.17
2024-03-12T20:05:11.056Z,1.30
2024-03-12T20:10:16.264Z,1.00
2024-03-12T20:15:19.729Z,1.48
2024-03-12T20:20:22.887Z,1.05
2024-03-12T20:25:27.879Z,1.10
2024-03-12T20:30:31.221Z,1.05
2024-03-12T20:35:34.386Z,0.90
2024-03-12T20:40:39.085Z,1.83
2024-03-12T20:45:42.183Z,1.45
2024-03-12T20:50:45.335Z,1.50
2024-03-12T20:55:50.131Z,1.00
2024-03-12T21:00:53.283Z,1.10
2024-03-12T21:05:56.354Z,1.10
2024-03-12T21:11:00.961Z,1.10
2024-03-12T21:16:04.245Z,1.15
2024-03-12T21:21:07.306Z,1.13
2024-03-12T21:26:11.952Z,1.08
2024-03-12T21:31:14.978Z,1.20
2024-03-12T21:36:18.024Z,1.02
2024-03-12T21:41:22.644Z,1.10
2024-03-12T21:46:25.694Z,0.93
2024-03-12T21:51:28.749Z,1.15
2024-03-12T21:56:33.367Z,1.33
2024-03-12T22:01:36.486Z,1.10
2024-03-12T22:06:39.643Z,1.42
2024-03-12T22:11:44.350Z,1.10
2024-03-12T22:16:47.667Z,1.20
2024-03-12T22:21:51.474Z,1.42
2024-03-12T22:26:56.231Z,0.93
2024-03-12T22:31:59.252Z,1.40
2024-03-12T22:37:02.434Z,0.85
2024-03-12T22:42:08.327Z,1.08
2024-03-12T22:47:12.141Z,1.10
2024-03-12T22:52:15.688Z,1.00
2024-03-12T22:57:20.930Z,1.27
2024-03-12T23:02:24.533Z,1.00
2024-03-12T23:07:28.013Z,1.00
2024-03-12T23:12:32.676Z,0.90
2024-03-12T23:17:35.694Z,1.20
2024-03-12T23:22:38.803Z,1.33
2024-03-12T23:27:43.556Z,1.13
2024-03-12T23:32:46.876Z,1.70
2024-03-12T23:37:49.963Z,1.83
2024-03-12T23:42:54.870Z,1.50
2024-03-12T23:47:58.025Z,3.47
2024-03-12T23:53:01.141Z,3.80
2024-03-12T23:58:06.082Z,5.88
